createdAt,value
2022-12-11T00:01:14.832Z,1.03
2022-12-11T00:03:59.774Z,0.73
2022-12-11T00:06:44.716Z,0.69
2022-12-11T00:09:29.677Z,0.90
2022-12-11T00:12:14.607Z,0.87
2022-12-11T00:14:59.633Z,0.77
2022-12-11T00:17:44.463Z,0.83
2022-12-11T00:20:29.454Z,0.56
2022-12-11T00:23:14.387Z,0.59
2022-12-11T00:25:59.190Z,0.94
2022-12-11T00:28:44.139Z,0.80
2022-12-11T00:31:29.016Z,0.70
2022-12-11T00:34:13.917Z,1.07
2022-12-11T00:36:58.951Z,0.76
2022-12-11T00:39:43.983Z,0.46
2022-12-11T00:42:28.786Z,0.55
2022-12-11T00:45:13.809Z,0.80
2022-12-11T00:47:58.673Z,0.88
2022-12-11T00:50:43.662Z,0.97
2022-12-11T00:53:28.558Z,0.64
2022-12-11T00:56:13.463Z,0.73
2022-12-11T00:58:58.552Z,0.63
2022-12-11T01:01:43.357Z,0.33
2022-12-11T01:04:28.347Z,0.47
2022-12-11T01:07:13.180Z,0.22
2022-12-11T01:09:58.122Z,0.54
2022-12-11T01:12:42.986Z,0.24
2022-12-11T01:15:27.891Z,0.75
2022-12-11T01:18:12.784Z,0.82
2022-12-11T01:20:57.527Z,0.82
2022-12-11T01:23:42.510Z,0.58
2022-12-11T01:26:27.364Z,0.66
2022-12-11T01:29:12.285Z,0.80
2022-12-11T01:31:57.070Z,0.30
2022-12-11T01:34:41.950Z,0.38
2022-12-11T01:37:26.755Z,0.38
2022-12-11T01:40:11.853Z,0.38
2022-12-11T01:42:56.644Z,0.47
2022-12-11T01:45:41.717Z,-0.02
2022-12-11T01:48:26.774Z,-0.01
2022-12-11T01:51:11.578Z,-0.09
2022-12-11T01:53:56.587Z,0.27
2022-12-11T01:56:41.448Z,0.30
2022-12-11T01:59:26.463Z,0.38
2022-12-11T02:02:11.385Z,0.11
2022-12-11T02:04:56.233Z,-0.49
2022-12-11T02:07:41.152Z,-0.63
2022-12-11T02:10:26.141Z,-0.41
2022-12-11T02:13:11.100Z,-0.57
2022-12-11T02:15:55.864Z,-0.37
2022-12-11T02:18:40.889Z,-0.47
2022-12-11T02:21:25.748Z,-0.63
2022-12-11T02:24:10.840Z,-0.53
2022-12-11T02:26:55.678Z,-0.58
2022-12-11T02:29:40.625Z,-0.62
2022-12-11T02:32:25.542Z,-0.47
2022-12-11T02:35:10.757Z,-0.57
2022-12-11T02:37:56.060Z,-0.26
2022-12-11T02:40:40.925Z,-1.11
2022-12-11T02:43:25.791Z,-1.14
2022-12-11T02:46:10.734Z,-0.85
2022-12-11T02:48:55.658Z,-0.93
2022-12-11T02:51:40.698Z,-0.55
2022-12-11T02:54:25.397Z,-0.85
2022-12-11T02:57:10.350Z,-0.84
2022-12-11T02:59:55.285Z,-1.11
2022-12-11T03:02:40.306Z,-0.97
2022-12-11T03:05:25.087Z,-0.62
2022-12-11T03:08:10.166Z,-0.75
2022-12-11T03:10:54.920Z,-0.57
2022-12-11T03:13:39.713Z,-1.10
2022-12-11T03:16:24.538Z,-1.15
2022-12-11T03:19:09.457Z,-0.62
2022-12-11T03:21:54.308Z,-0.67
2022-12-11T03:24:39.008Z,-0.35
2022-12-11T03:27:23.968Z,-0.52
2022-12-11T03:30:08.816Z,-0.69
2022-12-11T03:32:53.808Z,-0.49
2022-12-11T03:35:38.635Z,-0.41
2022-12-11T03:38:23.473Z,-0.89
2022-12-11T03:41:08.349Z,-0.64
2022-12-11T03:43:53.281Z,-0.73
2022-12-11T03:46:38.270Z,-0.60
2022-12-11T03:49:23.260Z,-0.45
2022-12-11T03:52:08.219Z,-0.41
2022-12-11T03:54:53.143Z,-0.42
2022-12-11T03:57:38.210Z,-0.24
2022-12-11T04:00:23.087Z,-0.21
2022-12-11T04:03:12.920Z,-0.27
2022-12-11T04:05:58.864Z,-0.33
2022-12-11T04:08:43.656Z,-0.26
2022-12-11T04:11:28.538Z,-0.22
2022-12-11T04:14:13.323Z,-0.44
2022-12-11T04:16:58.118Z,-0.38
2022-12-11T04:19:42.969Z,-0.50
2022-12-11T04:22:27.745Z,-0.28
2022-12-11T04:25:12.780Z,-0.40
2022-12-11T04:27:57.958Z,-0.28
2022-12-11T04:30:42.790Z,-0.39
2022-12-11T04:33:27.677Z,-0.47
2022-12-11T04:36:12.728Z,-0.98
2022-12-11T04:38:57.539Z,-1.15
2022-12-11T04:41:42.484Z,-0.76
2022-12-11T04:44:27.333Z,-1.12
2022-12-11T04:47:12.141Z,-1.23
2022-12-11T04:49:57.061Z,-1.36
2022-12-11T04:52:41.875Z,-0.74
2022-12-11T04:55:26.845Z,-1.47
2022-12-11T04:58:11.775Z,-0.87
2022-12-11T05:00:56.573Z,-1.35
2022-12-11T05:03:41.565Z,-1.61
2022-12-11T05:06:26.489Z,-1.07
2022-12-11T05:09:11.249Z,-0.89
2022-12-11T05:11:56.149Z,-0.73
2022-12-11T05:14:41.178Z,-1.36
2022-12-11T05:17:26.009Z,-1.61
2022-12-11T05:20:11.066Z,-1.32
2022-12-11T05:22:55.908Z,-0.88
2022-12-11T05:25:40.976Z,-0.89
2022-12-11T05:28:25.811Z,-0.89
2022-12-11T05:31:10.764Z,-0.69
2022-12-11T05:33:55.680Z,-0.69
2022-12-11T05:36:40.592Z,-0.71
2022-12-11T05:39:25.402Z,-0.61
2022-12-11T05:42:10.226Z,-0.47
2022-12-11T05:44:55.142Z,-1.15
2022-12-11T05:47:39.878Z,-0.89
2022-12-11T05:50:24.762Z,-1.19
2022-12-11T05:53:09.679Z,-1.16
2022-12-11T05:55:54.553Z,-0.90
2022-12-11T05:58:39.381Z,-1.77
2022-12-11T06:01:24.348Z,-1.30
2022-12-11T06:04:09.304Z,-0.97
2022-12-11T06:06:54.292Z,-0.86
2022-12-11T06:09:39.276Z,-1.14
2022-12-11T06:12:24.160Z,-1.53
2022-12-11T06:15:09.505Z,-1.50
2022-12-11T06:17:54.873Z,-1.49
2022-12-11T06:20:39.811Z,-1.63
2022-12-11T06:23:24.647Z,-1.41
2022-12-11T06:26:09.514Z,-1.31
2022-12-11T06:28:54.561Z,-1.20
2022-12-11T06:31:39.577Z,-1.37
2022-12-11T06:34:24.853Z,-1.24
2022-12-11T06:37:09.728Z,-1.13
2022-12-11T06:39:54.714Z,-1.20
2022-12-11T06:42:39.602Z,-2.05
2022-12-11T06:45:24.511Z,-1.72
2022-12-11T06:48:09.438Z,-1.45
2022-12-11T06:50:54.194Z,-1.39
2022-12-11T06:53:39.215Z,-1.70
2022-12-11T06:56:24.128Z,-1.39
2022-12-11T06:59:09.103Z,-1.45
2022-12-11T07:01:54.481Z,-1.79
2022-12-11T07:04:39.911Z,-1.60
2022-12-11T07:07:24.898Z,-1.70
2022-12-11T07:10:09.802Z,-1.64
2022-12-11T07:12:54.739Z,-1.60
2022-12-11T07:15:40.616Z,-1.67
2022-12-11T07:18:25.627Z,-1.92
2022-12-11T07:21:10.463Z,-1.80
2022-12-11T07:23:55.295Z,-1.68
2022-12-11T07:26:40.239Z,-1.91
2022-12-11T07:29:25.170Z,-1.95
2022-12-11T07:32:10.354Z,-1.99
2022-12-11T07:34:55.664Z,-1.98
2022-12-11T07:37:40.761Z,-2.28
2022-12-11T07:40:25.711Z,-2.24
2022-12-11T07:43:10.613Z,-1.91
2022-12-11T07:45:55.571Z,-1.94
2022-12-11T07:48:40.449Z,-2.00
2022-12-11T07:51:25.412Z,-1.78
2022-12-11T07:54:10.374Z,-1.86
2022-12-11T07:56:55.224Z,-1.58
2022-12-11T07:59:40.078Z,-1.60
2022-12-11T08:02:25.211Z,-1.63
2022-12-11T08:05:10.422Z,-1.49
2022-12-11T08:07:55.956Z,-1.13
2022-12-11T08:10:40.821Z,-1.38
2022-12-11T08:13:25.811Z,-1.24
2022-12-11T08:16:10.730Z,-1.12
2022-12-11T08:18:55.534Z,-0.82
2022-12-11T08:21:40.607Z,-0.96
2022-12-11T08:24:25.503Z,-1.11
2022-12-11T08:27:10.400Z,-1.13
2022-12-11T08:29:55.298Z,-1.46
2022-12-11T08:32:40.230Z,-1.12
2022-12-11T08:35:25.077Z,-1.12
2022-12-11T08:38:09.948Z,-1.28
2022-12-11T08:40:54.965Z,-1.36
2022-12-11T08:43:39.866Z,-1.30
2022-12-11T08:46:24.827Z,-0.80
2022-12-11T08:49:10.037Z,-0.76
2022-12-11T08:51:54.921Z,-0.93
2022-12-11T08:54:39.740Z,-0.74
2022-12-11T08:57:24.740Z,-0.79
2022-12-11T09:00:09.705Z,-0.64
2022-12-11T09:02:54.641Z,-0.57
2022-12-11T09:05:40.125Z,-0.33
2022-12-11T09:08:25.101Z,-0.42
2022-12-11T09:11:10.101Z,-0.05
2022-12-11T09:13:55.019Z,0.07
2022-12-11T09:16:39.980Z,-0.19
2022-12-11T09:19:29.207Z,0.04
2022-12-11T09:22:17.144Z,0.56
2022-12-11T09:25:02.059Z,0.41
2022-12-11T09:27:47.028Z,-0.01
2022-12-11T09:30:32.050Z,0.18
2022-12-11T09:33:17.002Z,0.93
2022-12-11T09:36:01.833Z,0.93
2022-12-11T09:38:46.699Z,0.53
2022-12-11T09:41:31.502Z,1.15
2022-12-11T09:44:16.500Z,1.35
2022-12-11T09:47:01.353Z,1.54
2022-12-11T09:49:46.056Z,1.51
2022-12-11T09:52:31.075Z,1.61
2022-12-11T09:55:16.070Z,1.57
2022-12-11T09:58:01.106Z,1.78
2022-12-11T10:00:45.998Z,1.42
2022-12-11T10:03:31.003Z,1.90
2022-12-11T10:06:15.817Z,1.65
2022-12-11T10:09:00.757Z,1.99
2022-12-11T10:11:45.553Z,1.96
2022-12-11T10:14:30.490Z,2.60
2022-12-11T10:17:16.002Z,2.95
2022-12-11T10:20:00.897Z,2.57
2022-12-11T10:22:45.798Z,1.73
2022-12-11T10:25:30.647Z,2.75
2022-12-11T10:28:15.561Z,3.30
2022-12-11T10:31:00.518Z,2.60
2022-12-11T10:33:45.371Z,2.17
2022-12-11T10:36:30.234Z,0.26
2022-12-11T10:39:15.021Z,1.30
2022-12-11T10:42:00.057Z,1.81
2022-12-11T10:44:45.269Z,2.39
2022-12-11T10:47:30.373Z,2.48
2022-12-11T10:50:15.299Z,2.92
2022-12-11T10:53:00.264Z,1.03
2022-12-11T10:55:45.219Z,1.66
2022-12-11T10:58:30.118Z,2.90
2022-12-11T11:01:15.244Z,3.81
2022-12-11T11:04:00.649Z,2.63
2022-12-11T11:06:45.636Z,3.16
2022-12-11T11:09:30.605Z,3.54
2022-12-11T11:12:15.506Z,2.40
2022-12-11T11:15:00.322Z,3.73
2022-12-11T11:17:54.246Z,4.19
2022-12-11T11:20:39.975Z,4.38
2022-12-11T11:23:25.068Z,5.19
2022-12-11T11:26:09.932Z,5.38
2022-12-11T11:28:54.980Z,5.16
2022-12-11T11:31:39.806Z,5.02
2022-12-11T11:34:24.718Z,4.78
2022-12-11T11:37:09.511Z,4.77
2022-12-11T11:39:54.452Z,5.37
2022-12-11T11:42:39.461Z,5.75
2022-12-11T11:45:24.327Z,6.20
2022-12-11T11:48:11.549Z,6.13
2022-12-11T11:50:56.546Z,6.29
2022-12-11T11:53:41.520Z,5.92
2022-12-11T11:56:26.439Z,6.07
2022-12-11T11:59:11.250Z,6.27
2022-12-11T12:01:56.150Z,6.14
2022-12-11T12:04:41.002Z,6.16
2022-12-11T12:07:25.933Z,6.31
2022-12-11T12:10:10.804Z,6.62
2022-12-11T12:12:56.173Z,5.92
2022-12-11T12:15:41.067Z,6.00
2022-12-11T12:18:25.957Z,6.06
2022-12-11T12:21:10.837Z,6.50
2022-12-11T12:23:55.689Z,6.60
2022-12-11T12:26:40.560Z,6.47
2022-12-11T12:29:25.518Z,6.25
2022-12-11T12:32:10.531Z,6.22
2022-12-11T12:34:55.463Z,6.37
2022-12-11T12:37:40.333Z,6.47
2022-12-11T12:40:25.137Z,6.67
2022-12-11T12:43:10.057Z,7.01
2022-12-11T12:45:55.058Z,6.84
2022-12-11T12:48:39.878Z,6.87
2022-12-11T12:51:24.833Z,6.39
2022-12-11T12:54:12.469Z,5.59
2022-12-11T12:56:57.745Z,6.17
2022-12-11T12:59:42.518Z,6.09
2022-12-11T13:02:27.437Z,6.30
2022-12-11T13:05:12.723Z,6.23
2022-12-11T13:07:57.900Z,6.02
2022-12-11T13:10:42.860Z,5.58
2022-12-11T13:13:27.678Z,5.67
2022-12-11T13:16:12.684Z,5.39
2022-12-11T13:18:57.428Z,5.42
2022-12-11T13:21:42.298Z,5.82
2022-12-11T13:24:27.308Z,6.24
2022-12-11T13:27:11.994Z,6.20
2022-12-11T13:29:56.923Z,5.99
2022-12-11T13:32:41.832Z,6.53
2022-12-11T13:35:26.763Z,6.28
2022-12-11T13:38:11.546Z,6.50
2022-12-11T13:40:56.498Z,6.81
2022-12-11T13:43:41.221Z,6.04
2022-12-11T13:46:26.053Z,6.61
2022-12-11T13:49:10.925Z,6.94
2022-12-11T13:51:55.914Z,7.24
2022-12-11T13:54:40.769Z,7.28
2022-12-11T13:57:25.659Z,6.99
2022-12-11T14:00:15.825Z,7.23
2022-12-11T14:03:02.556Z,7.48
2022-12-11T14:05:47.655Z,7.72
2022-12-11T14:08:33.664Z,7.90
2022-12-11T14:11:18.458Z,7.74
2022-12-11T14:14:03.420Z,7.99
2022-12-11T14:16:48.316Z,8.21
2022-12-11T14:19:33.149Z,8.22
2022-12-11T14:22:18.160Z,8.17
2022-12-11T14:25:03.064Z,7.66
2022-12-11T14:27:48.031Z,8.13
2022-12-11T14:30:32.992Z,8.02
2022-12-11T14:33:17.901Z,8.13
2022-12-11T14:36:02.727Z,7.35
2022-12-11T14:38:47.619Z,7.57
2022-12-11T14:41:32.519Z,6.85
2022-12-11T14:44:17.461Z,6.33
2022-12-11T14:47:02.618Z,5.86
2022-12-11T14:49:47.518Z,5.20
2022-12-11T14:52:32.509Z,4.64
2022-12-11T14:55:17.468Z,4.35
2022-12-11T14:58:02.478Z,3.96
2022-12-11T15:00:47.283Z,3.62
2022-12-11T15:03:32.301Z,3.40
2022-12-11T15:06:17.289Z,2.98
2022-12-11T15:09:02.312Z,2.89
2022-12-11T15:11:47.242Z,2.86
2022-12-11T15:14:32.124Z,2.61
2022-12-11T15:17:17.119Z,2.30
2022-12-11T15:20:01.932Z,2.15
2022-12-11T15:22:46.798Z,1.93
2022-12-11T15:25:31.681Z,1.72
2022-12-11T15:28:16.511Z,1.63
2022-12-11T15:31:01.293Z,1.54
2022-12-11T15:33:46.168Z,1.54
2022-12-11T15:36:31.237Z,1.59
2022-12-11T15:39:16.096Z,1.02
2022-12-11T15:42:01.055Z,1.16
2022-12-11T15:44:45.874Z,1.15
2022-12-11T15:47:30.927Z,0.98
2022-12-11T15:50:15.717Z,0.92
2022-12-11T15:53:00.621Z,1.05
2022-12-11T15:55:45.497Z,0.70
2022-12-11T15:58:30.510Z,0.69
2022-12-11T16:01:15.501Z,0.42
2022-12-11T16:04:04.645Z,0.22
2022-12-11T16:06:49.776Z,0.13
2022-12-11T16:09:34.710Z,0.24
2022-12-11T16:12:19.638Z,0.14
2022-12-11T16:15:04.569Z,-0.17
2022-12-11T16:17:49.456Z,-0.06
2022-12-11T16:20:34.535Z,-0.22
2022-12-11T16:23:19.440Z,-0.14
2022-12-11T16:26:04.305Z,-0.13
2022-12-11T16:28:49.225Z,-0.09
2022-12-11T16:31:34.343Z,-0.03
2022-12-11T16:34:19.260Z,-0.41
2022-12-11T16:37:04.075Z,-0.32
2022-12-11T16:39:49.125Z,-0.19
2022-12-11T16:42:33.862Z,-0.16
2022-12-11T16:45:18.860Z,-0.26
2022-12-11T16:48:03.683Z,-0.15
2022-12-11T16:50:48.600Z,-0.05
2022-12-11T16:53:33.393Z,-0.47
2022-12-11T16:56:18.315Z,-0.20
2022-12-11T16:59:03.124Z,-0.48
2022-12-11T17:01:48.058Z,-0.40
2022-12-11T17:04:32.974Z,-0.75
2022-12-11T17:07:17.883Z,-0.51
2022-12-11T17:10:02.697Z,-0.49
2022-12-11T17:12:47.724Z,-1.24
2022-12-11T17:15:32.683Z,-0.65
2022-12-11T17:18:18.145Z,-0.83
2022-12-11T17:21:02.974Z,-0.67
2022-12-11T17:23:47.955Z,-0.91
2022-12-11T17:26:32.970Z,-0.62
2022-12-11T17:29:17.833Z,-1.23
2022-12-11T17:32:02.594Z,-0.83
2022-12-11T17:34:47.675Z,-0.88
2022-12-11T17:37:32.661Z,-1.04
2022-12-11T17:40:17.546Z,-0.37
2022-12-11T17:43:02.458Z,-0.39
2022-12-11T17:45:47.378Z,-0.48
2022-12-11T17:48:32.337Z,-0.28
2022-12-11T17:51:17.149Z,-0.19
2022-12-11T17:54:02.047Z,-0.30
2022-12-11T17:56:47.003Z,-0.12
2022-12-11T17:59:31.853Z,-0.19
2022-12-11T18:02:16.785Z,-0.26
2022-12-11T18:05:01.531Z,0.20
2022-12-11T18:07:46.427Z,0.16
2022-12-11T18:10:31.238Z,0.38
2022-12-11T18:13:16.177Z,0.30
2022-12-11T18:16:01.112Z,0.24
2022-12-11T18:18:45.973Z,0.45
2022-12-11T18:21:30.785Z,0.30
2022-12-11T18:24:15.586Z,-0.03
2022-12-11T18:27:00.351Z,0.04
2022-12-11T18:29:45.227Z,-0.01
2022-12-11T18:32:30.132Z,-0.07
2022-12-11T18:35:15.103Z,0.07
2022-12-11T18:37:59.964Z,-0.09
2022-12-11T18:40:44.742Z,-0.19
2022-12-11T18:43:29.844Z,-0.15
2022-12-11T18:46:14.641Z,-0.33
2022-12-11T18:48:59.671Z,-0.13
2022-12-11T18:51:44.555Z,-0.23
2022-12-11T18:54:29.465Z,-0.38
2022-12-11T18:57:14.235Z,-0.53
2022-12-11T18:59:59.380Z,-0.38
2022-12-11T19:02:44.883Z,-0.35
2022-12-11T19:05:29.706Z,-0.48
2022-12-11T19:08:14.628Z,-0.65
2022-12-11T19:10:59.406Z,-0.04
2022-12-11T19:13:44.390Z,-0.37
2022-12-11T19:16:29.371Z,-0.19
2022-12-11T19:19:14.253Z,-0.50
2022-12-11T19:21:59.128Z,-0.16
2022-12-11T19:24:44.124Z,-0.19
2022-12-11T19:27:28.922Z,-0.20
2022-12-11T19:30:13.925Z,-0.12
2022-12-11T19:32:58.894Z,0.07
2022-12-11T19:35:43.773Z,-0.06
2022-12-11T19:38:28.758Z,0.02
2022-12-11T19:41:13.623Z,0.32
2022-12-11T19:43:58.661Z,0.18
2022-12-11T19:46:43.567Z,-0.00
2022-12-11T19:49:28.466Z,0.01
2022-12-11T19:52:13.406Z,-0.02
2022-12-11T19:54:58.322Z,0.02
2022-12-11T19:57:43.393Z,0.06
2022-12-11T20:00:28.314Z,-0.27
2022-12-11T20:03:13.197Z,0.09
2022-12-11T20:05:57.918Z,-0.27
2022-12-11T20:08:45.739Z,0.13
2022-12-11T20:11:31.473Z,-0.70
2022-12-11T20:14:16.506Z,-0.67
2022-12-11T20:17:11.907Z,-0.72
2022-12-11T20:19:57.336Z,-0.55
2022-12-11T20:22:42.372Z,-0.44
2022-12-11T20:25:27.346Z,-0.18
2022-12-11T20:28:12.231Z,-0.03
2022-12-11T20:30:57.006Z,0.11
2022-12-11T20:33:41.964Z,0.03
2022-12-11T20:36:26.788Z,0.10
2022-12-11T20:39:11.672Z,0.06
2022-12-11T20:41:56.626Z,0.32
2022-12-11T20:44:45.648Z,-0.04
2022-12-11T20:47:33.958Z,-0.11
2022-12-11T20:50:19.021Z,-0.26
2022-12-11T20:53:03.926Z,-0.19
2022-12-11T20:55:48.812Z,-0.10
2022-12-11T20:58:33.692Z,-0.23
2022-12-11T21:01:18.589Z,-0.25
2022-12-11T21:04:03.415Z,-0.42
2022-12-11T21:06:48.393Z,-0.31
2022-12-11T21:09:33.480Z,-0.36
2022-12-11T21:12:18.448Z,-0.48
2022-12-11T21:15:03.259Z,-0.35
2022-12-11T21:17:48.121Z,-0.28
2022-12-11T21:20:33.069Z,-0.45
2022-12-11T21:23:18.012Z,-0.20
2022-12-11T21:26:02.981Z,-0.24
2022-12-11T21:28:47.794Z,-0.24
2022-12-11T21:31:32.717Z,-0.28
2022-12-11T21:34:23.558Z,-0.21
2022-12-11T21:37:10.304Z,0.17
2022-12-11T21:39:55.217Z,-0.04
2022-12-11T21:42:40.121Z,0.18
2022-12-11T21:45:59.702Z,0.03
2022-12-11T21:48:29.993Z,-0.05
2022-12-11T21:51:14.971Z,-0.02
2022-12-11T21:53:59.866Z,0.28
2022-12-11T21:56:44.736Z,0.48
2022-12-11T21:59:29.539Z,0.10
2022-12-11T22:02:14.430Z,0.26
2022-12-11T22:04:59.343Z,-0.00
2022-12-11T22:07:44.240Z,0.21
2022-12-11T22:10:29.076Z,0.16
2022-12-11T22:13:13.876Z,0.35
2022-12-11T22:15:58.882Z,0.38
2022-12-11T22:18:43.639Z,0.25
2022-12-11T22:21:28.497Z,0.38
2022-12-11T22:24:13.320Z,0.21
2022-12-11T22:26:58.311Z,0.37
2022-12-11T22:29:43.172Z,0.13
2022-12-11T22:32:27.952Z,0.42
2022-12-11T22:35:13.252Z,0.15
2022-12-11T22:37:58.305Z,0.43
2022-12-11T22:40:43.233Z,0.43
2022-12-11T22:43:28.060Z,0.43
2022-12-11T22:46:12.885Z,0.36
2022-12-11T22:48:57.671Z,0.34
2022-12-11T22:51:42.726Z,0.21
2022-12-11T22:54:27.537Z,0.29
2022-12-11T22:57:12.602Z,0.03
2022-12-11T22:59:57.439Z,0.50
2022-12-11T23:02:42.426Z,0.58
2022-12-11T23:05:27.800Z,0.18
2022-12-11T23:08:12.826Z,0.11
2022-12-11T23:10:58.077Z,0.14
2022-12-11T23:13:42.929Z,0.29
2022-12-11T23:16:27.842Z,0.26
2022-12-11T23:19:13.131Z,0.39
2022-12-11T23:21:58.036Z,0.18
2022-12-11T23:24:43.122Z,0.15
2022-12-11T23:27:28.038Z,0.34
2022-12-11T23:30:13.005Z,0.36
2022-12-11T23:32:58.005Z,0.52
2022-12-11T23:35:42.866Z,0.52
2022-12-11T23:38:27.649Z,0.49
2022-12-11T23:41:12.583Z,0.42
2022-12-11T23:43:57.420Z,0.25
2022-12-11T23:46:42.308Z,0.29
2022-12-11T23:49:27.179Z,0.24
2022-12-11T23:52:11.936Z,0.32
2022-12-11T23:54:56.816Z,0.55
2022-12-11T23:57:41.642Z,0.27
